createdAt,value
2023-02-11T00:00:19.401Z,0.34
2023-02-11T00:02:54.772Z,0.33
2023-02-11T00:05:27.548Z,0.32
2023-02-11T00:07:58.338Z,0.31
2023-02-11T00:10:33.564Z,0.30
2023-02-11T00:13:07.237Z,0.29
2023-02-11T00:15:41.859Z,0.29
2023-02-11T00:18:23.291Z,0.30
2023-02-11T00:20:51.888Z,0.30
2023-02-11T00:23:21.251Z,0.34
2023-02-11T00:25:51.383Z,0.40
2023-02-11T00:28:53.990Z,0.48
2023-02-11T00:31:25.309Z,0.56
2023-02-11T00:33:55.758Z,0.60
2023-02-11T00:36:26.158Z,0.62
2023-02-11T00:38:59.482Z,0.63
2023-02-11T00:41:35.807Z,0.62
2023-02-11T00:44:05.480Z,0.60
2023-02-11T00:46:34.446Z,0.59
2023-02-11T00:49:03.154Z,0.58
2023-02-11T00:51:31.827Z,0.56
2023-02-11T00:54:00.327Z,0.55
2023-02-11T00:56:29.278Z,0.53
2023-02-11T00:58:57.412Z,0.51
2023-02-11T01:01:25.638Z,0.51
2023-02-11T01:03:54.700Z,0.53
2023-02-11T01:06:24.442Z,0.57
2023-02-11T01:08:52.405Z,0.60
2023-02-11T01:11:21.085Z,0.64
2023-02-11T01:13:49.535Z,0.67
2023-02-11T01:16:18.175Z,0.67
2023-02-11T01:18:47.294Z,0.66
2023-02-11T01:21:16.291Z,0.65
2023-02-11T01:23:44.382Z,0.64
2023-02-11T01:26:13.537Z,0.62
2023-02-11T01:28:41.669Z,0.60
2023-02-11T01:31:09.795Z,0.59
2023-02-11T01:33:37.881Z,0.58
2023-02-11T01:36:07.745Z,0.56
2023-02-11T01:38:36.056Z,0.56
2023-02-11T01:41:06.607Z,0.57
2023-02-11T01:43:36.892Z,0.61
2023-02-11T01:46:25.234Z,0.65
2023-02-11T01:48:56.172Z,0.68
2023-02-11T01:51:27.336Z,0.70
2023-02-11T01:54:15.412Z,0.70
2023-02-11T01:57:05.645Z,0.68
2023-02-11T01:59:38.834Z,0.66
2023-02-11T02:02:09.510Z,0.64
2023-02-11T02:05:03.049Z,0.63
2023-02-11T02:15:53.493Z,0.63
2023-02-11T02:18:24.681Z,0.63
2023-02-11T02:20:53.006Z,0.65
2023-02-11T02:23:55.109Z,0.67
2023-02-11T02:26:53.086Z,0.67
2023-02-11T02:29:24.476Z,0.66
2023-02-11T02:32:13.872Z,0.66
2023-02-11T02:35:02.980Z,0.65
2023-02-11T02:37:38.298Z,0.65
2023-02-11T02:40:16.164Z,0.64
2023-02-11T02:42:45.518Z,0.64
2023-02-11T02:45:13.692Z,0.64
2023-02-11T02:47:43.610Z,0.68
2023-02-11T02:50:11.918Z,0.72
2023-02-11T02:53:02.782Z,0.77
2023-02-11T02:55:50.340Z,0.84
2023-02-11T02:58:31.487Z,0.85
2023-02-11T03:01:19.067Z,0.83
2023-02-11T03:04:03.674Z,0.82
2023-02-11T03:06:53.871Z,0.81
2023-02-11T03:09:26.534Z,0.79
2023-02-11T03:11:54.625Z,0.78
2023-02-11T03:14:22.808Z,0.76
2023-02-11T03:16:51.018Z,0.75
2023-02-11T03:19:21.851Z,0.74
2023-02-11T03:21:50.511Z,0.72
2023-02-11T03:24:30.674Z,0.69
2023-02-11T03:27:18.344Z,0.69
2023-02-11T03:30:08.291Z,0.70
2023-02-11T03:32:50.724Z,0.74
2023-02-11T03:35:24.702Z,0.78
2023-02-11T03:37:54.970Z,0.81
2023-02-11T03:40:45.772Z,0.82
2023-02-11T03:43:19.690Z,0.83
2023-02-11T03:45:47.832Z,0.84
2023-02-11T03:48:20.969Z,0.83
2023-02-11T03:50:49.344Z,0.82
2023-02-11T03:53:17.415Z,0.82
2023-02-11T03:55:45.789Z,0.80
2023-02-11T03:58:13.996Z,0.79
2023-02-11T04:00:42.966Z,0.77
2023-02-11T04:03:12.423Z,0.75
2023-02-11T04:05:40.557Z,0.73
2023-02-11T04:08:08.512Z,0.73
2023-02-11T04:10:36.556Z,0.75
2023-02-11T04:13:06.191Z,0.78
2023-02-11T04:15:34.559Z,0.80
2023-02-11T04:18:03.669Z,0.81
2023-02-11T04:20:32.716Z,0.79
2023-02-11T04:23:00.706Z,0.78
2023-02-11T04:25:29.327Z,0.80
2023-02-11T04:27:57.414Z,0.81
2023-02-11T04:30:25.675Z,0.79
2023-02-11T04:32:54.631Z,0.80
2023-02-11T04:35:23.219Z,0.79
2023-02-11T04:37:51.396Z,0.79
2023-02-11T04:40:19.375Z,0.75
2023-02-11T04:42:47.505Z,0.75
2023-02-11T04:45:15.487Z,0.76
2023-02-11T04:47:43.913Z,0.81
2023-02-11T04:50:11.888Z,0.88
2023-02-11T04:52:40.014Z,0.95
2023-02-11T04:55:08.273Z,0.99
2023-02-11T04:57:37.679Z,1.02
2023-02-11T05:00:06.190Z,1.04
2023-02-11T05:02:35.798Z,1.04
2023-02-11T05:05:04.805Z,1.01
2023-02-11T05:07:33.304Z,0.99
2023-02-11T05:10:01.341Z,1.00
2023-02-11T05:12:29.560Z,0.98
2023-02-11T05:14:57.593Z,0.96
2023-02-11T05:17:25.696Z,0.96
2023-02-11T05:19:53.876Z,0.96
2023-02-11T05:22:22.184Z,0.96
2023-02-11T05:24:50.792Z,0.95
2023-02-11T05:27:19.002Z,0.92
2023-02-11T05:29:47.192Z,0.91
2023-02-11T05:32:15.191Z,0.89
2023-02-11T05:34:43.238Z,0.91
2023-02-11T05:37:16.067Z,0.97
2023-02-11T05:39:44.034Z,1.04
2023-02-11T05:42:13.961Z,1.10
2023-02-11T05:44:41.968Z,1.14
2023-02-11T05:47:10.874Z,1.16
2023-02-11T05:49:39.561Z,1.15
2023-02-11T05:52:08.266Z,1.13
2023-02-11T05:54:37.553Z,1.11
2023-02-11T05:57:05.501Z,1.04
2023-02-11T05:59:33.405Z,0.99
2023-02-11T06:02:02.643Z,0.97
2023-02-11T06:04:30.905Z,0.95
2023-02-11T06:06:59.954Z,0.89
2023-02-11T06:09:28.815Z,0.83
2023-02-11T06:11:56.779Z,0.79
2023-02-11T06:14:24.754Z,0.76
2023-02-11T06:16:53.346Z,0.76
2023-02-11T06:19:22.988Z,0.76
2023-02-11T06:21:50.994Z,0.72
2023-02-11T06:24:38.358Z,0.76
2023-02-11T06:27:07.296Z,0.74
2023-02-11T06:29:35.404Z,0.65
2023-02-11T06:32:03.885Z,0.56
2023-02-11T06:34:32.280Z,0.52
2023-02-11T06:37:03.801Z,0.54
2023-02-11T06:39:32.735Z,0.53
2023-02-11T06:42:05.356Z,0.59
2023-02-11T06:44:34.342Z,0.68
2023-02-11T06:47:06.129Z,0.76
2023-02-11T06:49:35.070Z,0.82
2023-02-11T06:52:03.586Z,0.88
2023-02-11T06:54:31.895Z,0.91
2023-02-11T06:57:00.034Z,0.90
2023-02-11T06:59:28.141Z,0.90
2023-02-11T07:01:56.120Z,0.88
2023-02-11T07:04:24.297Z,0.88
2023-02-11T07:06:52.270Z,0.87
2023-02-11T07:09:20.997Z,0.87
2023-02-11T07:11:49.430Z,0.92
2023-02-11T07:14:17.815Z,0.94
2023-02-11T07:16:45.798Z,0.96
2023-02-11T07:19:16.852Z,1.01
2023-02-11T07:21:44.796Z,1.04
2023-02-11T07:24:16.442Z,1.05
2023-02-11T07:26:50.441Z,1.06
2023-02-11T07:29:18.415Z,1.08
2023-02-11T07:31:46.595Z,1.09
2023-02-11T07:34:16.604Z,1.10
2023-02-11T07:36:45.267Z,1.09
2023-02-11T07:39:13.640Z,1.11
2023-02-11T07:41:42.881Z,1.18
2023-02-11T07:44:11.433Z,1.26
2023-02-11T07:46:43.596Z,1.29
2023-02-11T07:49:12.207Z,1.34
2023-02-11T07:51:40.567Z,1.37
2023-02-11T07:54:08.574Z,1.35
2023-02-11T07:56:36.604Z,1.32
2023-02-11T07:59:04.764Z,1.32
2023-02-11T08:01:33.732Z,1.32
2023-02-11T08:04:02.061Z,1.30
2023-02-11T08:06:31.783Z,1.30
2023-02-11T08:09:06.169Z,1.30
2023-02-11T08:11:34.706Z,1.31
2023-02-11T08:14:02.942Z,1.37
2023-02-11T08:16:33.226Z,1.44
2023-02-11T08:19:04.438Z,1.50
2023-02-11T08:21:35.280Z,1.55
2023-02-11T08:24:04.581Z,1.57
2023-02-11T08:26:34.736Z,1.62
2023-02-11T08:29:05.813Z,1.65
2023-02-11T08:31:35.147Z,1.67
2023-02-11T08:34:03.486Z,1.67
2023-02-11T08:36:34.281Z,1.70
2023-02-11T08:39:18.218Z,1.74
2023-02-11T08:41:52.808Z,1.81
2023-02-11T08:44:20.880Z,1.87
2023-02-11T08:46:50.256Z,1.93
2023-02-11T08:49:18.907Z,2.02
2023-02-11T08:51:47.513Z,2.10
2023-02-11T08:54:15.938Z,2.09
2023-02-11T08:56:44.104Z,2.06
2023-02-11T08:59:13.643Z,2.07
2023-02-11T09:01:44.174Z,2.08
2023-02-11T09:04:12.898Z,2.09
2023-02-11T09:06:44.453Z,2.08
2023-02-11T09:09:14.216Z,2.09
2023-02-11T09:11:42.926Z,2.10
2023-02-11T09:14:16.733Z,2.08
2023-02-11T09:16:45.013Z,2.09
2023-02-11T09:19:13.576Z,2.09
2023-02-11T09:21:42.061Z,2.10
2023-02-11T09:24:11.244Z,2.09
2023-02-11T09:26:42.030Z,2.10
2023-02-11T09:29:12.757Z,2.12
2023-02-11T09:31:41.106Z,2.15
2023-02-11T09:34:11.105Z,2.12
2023-02-11T09:36:40.458Z,2.03
2023-02-11T09:39:12.529Z,2.01
2023-02-11T09:42:02.350Z,2.01
2023-02-11T09:44:33.266Z,2.04
2023-02-11T09:47:22.078Z,2.10
2023-02-11T09:49:54.771Z,2.15
2023-02-11T09:52:36.113Z,2.13
2023-02-11T09:55:06.875Z,2.08
2023-02-11T09:57:37.828Z,2.08
2023-02-11T10:00:27.542Z,2.07
2023-02-11T10:03:35.500Z,2.03
2023-02-11T10:06:25.352Z,2.03
2023-02-11T10:09:26.247Z,2.07
2023-02-11T10:12:35.619Z,2.13
2023-02-11T10:15:42.668Z,2.17
2023-02-11T10:18:56.352Z,2.23
2023-02-11T10:22:15.881Z,2.28
2023-02-11T10:24:59.137Z,2.30
2023-02-11T10:27:35.309Z,2.29
2023-02-11T10:30:58.304Z,2.27
2023-02-11T10:33:54.561Z,2.27
2023-02-11T10:36:31.907Z,2.29
2023-02-11T10:39:03.176Z,2.33
2023-02-11T10:41:35.213Z,2.38
2023-02-11T10:44:08.235Z,2.35
2023-02-11T10:46:40.361Z,2.33
2023-02-11T10:49:12.153Z,2.32
2023-02-11T10:51:43.221Z,2.33
2023-02-11T10:54:22.212Z,2.33
2023-02-11T10:57:00.223Z,2.33
2023-02-11T10:59:40.423Z,2.36
2023-02-11T11:10:44.764Z,2.60
2023-02-11T11:13:33.359Z,2.62
2023-02-11T11:16:13.679Z,2.66
2023-02-11T11:18:45.327Z,2.63
2023-02-11T11:21:13.401Z,2.58
2023-02-11T11:23:42.189Z,2.51
2023-02-11T11:26:14.208Z,2.46
2023-02-11T11:28:49.384Z,2.44
2023-02-11T11:31:20.919Z,2.45
2023-02-11T11:33:49.315Z,2.49
2023-02-11T11:36:21.177Z,2.54
2023-02-11T11:38:58.401Z,2.57
2023-02-11T11:41:31.016Z,2.58
2023-02-11T11:44:22.143Z,2.54
2023-02-11T11:47:15.780Z,2.52
2023-02-11T11:50:03.240Z,2.48
2023-02-11T11:52:32.017Z,2.48
2023-02-11T11:55:05.290Z,2.50
2023-02-11T11:57:34.337Z,2.55
2023-02-11T12:00:02.421Z,2.60
2023-02-11T12:02:57.591Z,2.63
2023-02-11T12:05:27.885Z,2.67
2023-02-11T12:08:24.765Z,2.67
2023-02-11T12:11:38.040Z,2.64
2023-02-11T12:14:09.619Z,2.62
2023-02-11T12:17:23.773Z,2.63
2023-02-11T12:20:12.994Z,2.67
2023-02-11T12:23:15.154Z,2.70
2023-02-11T12:25:44.690Z,2.76
2023-02-11T12:28:33.034Z,2.75
2023-02-11T12:31:20.299Z,2.71
2023-02-11T12:33:57.940Z,2.62
2023-02-11T12:36:54.494Z,2.60
2023-02-11T12:39:33.825Z,2.59
2023-02-11T12:42:52.355Z,2.60
2023-02-11T12:45:29.752Z,2.61
2023-02-11T12:48:27.238Z,2.66
2023-02-11T12:51:04.886Z,2.68
2023-02-11T12:54:06.776Z,2.66
2023-02-11T12:56:59.375Z,2.64
2023-02-11T13:00:02.006Z,2.65
2023-02-11T13:03:06.085Z,2.67
2023-02-11T13:05:38.878Z,2.68
2023-02-11T13:08:29.524Z,2.74
2023-02-11T13:11:13.854Z,2.79
2023-02-11T13:13:47.703Z,2.82
2023-02-11T13:16:22.682Z,2.84
2023-02-11T13:19:39.529Z,2.84
2023-02-11T13:22:18.373Z,2.85
2023-02-11T13:24:55.896Z,2.86
2023-02-11T13:27:38.608Z,2.88
2023-02-11T13:30:26.050Z,2.90
2023-02-11T13:32:54.521Z,2.93
2023-02-11T13:35:35.439Z,2.92
2023-02-11T13:38:18.202Z,2.93
2023-02-11T13:40:46.764Z,2.98
2023-02-11T13:43:26.418Z,3.02
2023-02-11T13:46:05.999Z,3.07
2023-02-11T13:48:37.631Z,3.11
2023-02-11T13:51:06.950Z,3.11
2023-02-11T13:54:02.609Z,3.10
2023-02-11T13:56:39.408Z,3.09
2023-02-11T13:59:26.733Z,3.06
2023-02-11T14:02:36.493Z,3.03
2023-02-11T14:05:23.266Z,3.00
2023-02-11T14:08:28.719Z,3.02
2023-02-11T14:11:12.470Z,3.01
2023-02-11T14:13:47.472Z,3.00
2023-02-11T14:16:31.603Z,3.01
2023-02-11T14:19:06.625Z,3.01
2023-02-11T14:21:46.751Z,3.01
2023-02-11T14:24:14.796Z,3.00
2023-02-11T14:27:05.153Z,3.00
2023-02-11T14:29:51.254Z,2.98
2023-02-11T14:32:43.649Z,2.97
2023-02-11T14:35:33.616Z,2.94
2023-02-11T14:38:20.822Z,2.92
2023-02-11T14:40:51.272Z,2.92
2023-02-11T14:43:22.879Z,2.94
2023-02-11T14:45:53.611Z,2.97
2023-02-11T14:48:27.426Z,2.97
2023-02-11T14:51:00.902Z,3.00
2023-02-11T14:53:30.788Z,3.00
2023-02-11T14:56:00.821Z,3.00
2023-02-11T14:58:31.599Z,3.00
2023-02-11T15:01:19.194Z,2.99
2023-02-11T15:03:48.668Z,2.96
2023-02-11T15:06:18.795Z,2.94
2023-02-11T15:09:00.909Z,2.94
2023-02-11T15:11:39.798Z,2.90
2023-02-11T15:14:23.089Z,2.90
2023-02-11T15:16:53.478Z,2.91
2023-02-11T15:19:26.909Z,2.89
2023-02-11T15:21:55.346Z,2.86
2023-02-11T15:24:34.981Z,2.84
2023-02-11T15:27:15.737Z,2.82
2023-02-11T15:29:49.651Z,2.81
2023-02-11T15:32:22.809Z,2.81
2023-02-11T15:34:52.090Z,2.81
2023-02-11T15:37:29.763Z,2.83
2023-02-11T15:40:09.651Z,2.86
2023-02-11T15:42:51.869Z,2.86
2023-02-11T15:45:24.899Z,2.85
2023-02-11T15:47:54.698Z,2.85
2023-02-11T15:50:33.105Z,2.82
2023-02-11T15:53:02.944Z,2.80
2023-02-11T15:55:37.486Z,2.78
2023-02-11T15:58:05.573Z,2.75
2023-02-11T16:00:37.348Z,2.73
2023-02-11T16:03:05.495Z,2.69
2023-02-11T16:05:35.876Z,2.67
2023-02-11T16:08:20.595Z,2.66
2023-02-11T16:11:03.303Z,2.62
2023-02-11T16:13:34.462Z,2.57
2023-02-11T16:16:05.020Z,2.55
2023-02-11T16:18:39.844Z,2.52
2023-02-11T16:21:16.154Z,2.51
2023-02-11T16:23:50.806Z,2.50
2023-02-11T16:26:23.247Z,2.49
2023-02-11T16:28:51.569Z,2.48
2023-02-11T16:31:20.747Z,2.48
2023-02-11T16:33:50.542Z,2.48
2023-02-11T16:36:19.799Z,2.46
2023-02-11T16:38:49.557Z,2.44
2023-02-11T16:41:18.251Z,2.44
2023-02-11T16:43:46.588Z,2.44
2023-02-11T16:46:16.123Z,2.41
2023-02-11T16:48:44.392Z,2.38
2023-02-11T16:51:12.634Z,2.38
2023-02-11T16:53:41.442Z,2.37
2023-02-11T16:56:15.816Z,2.37
2023-02-11T16:58:44.921Z,2.35
2023-02-11T17:01:14.202Z,2.35
2023-02-11T17:03:43.924Z,2.33
2023-02-11T17:06:13.733Z,2.30
2023-02-11T17:08:42.371Z,2.28
2023-02-11T17:11:10.524Z,2.26
2023-02-11T17:13:41.523Z,2.24
2023-02-11T17:16:29.895Z,2.22
2023-02-11T17:18:58.656Z,2.20
2023-02-11T17:21:29.730Z,2.20
2023-02-11T17:23:59.340Z,2.19
2023-02-11T17:26:27.911Z,2.19
2023-02-11T17:28:56.719Z,2.20
2023-02-11T17:31:25.028Z,2.19
2023-02-11T17:33:53.214Z,2.21
2023-02-11T17:36:21.483Z,2.22
2023-02-11T17:38:51.233Z,2.24
2023-02-11T17:41:19.535Z,2.25
2023-02-11T17:43:47.544Z,2.26
2023-02-11T17:46:15.741Z,2.26
2023-02-11T17:48:43.858Z,2.26
2023-02-11T17:51:31.640Z,2.26
2023-02-11T17:54:02.620Z,2.28
2023-02-11T17:56:35.319Z,2.28
2023-02-11T17:59:04.005Z,2.28
2023-02-11T18:01:33.219Z,2.28
2023-02-11T18:04:01.552Z,2.29
2023-02-11T18:06:29.923Z,2.30
2023-02-11T18:08:59.892Z,2.30
2023-02-11T18:11:30.597Z,2.29
2023-02-11T18:13:59.376Z,2.30
2023-02-11T18:16:28.979Z,2.29
2023-02-11T18:18:57.770Z,2.28
2023-02-11T18:21:25.903Z,2.28
2023-02-11T18:23:54.061Z,2.30
2023-02-11T18:26:22.359Z,2.30
2023-02-11T18:28:52.569Z,2.31
2023-02-11T18:31:21.969Z,2.30
2023-02-11T18:33:50.954Z,2.31
2023-02-11T18:36:20.564Z,2.31
2023-02-11T18:38:50.075Z,2.30
2023-02-11T18:41:18.082Z,2.30
2023-02-11T18:43:46.837Z,2.31
2023-02-11T18:46:15.149Z,2.31
2023-02-11T18:48:44.864Z,2.31
2023-02-11T18:51:15.139Z,2.31
2023-02-11T18:53:43.445Z,2.31
2023-02-11T18:56:17.036Z,2.31
2023-02-11T18:58:45.058Z,2.31
2023-02-11T19:01:17.982Z,2.30
2023-02-11T19:03:46.475Z,2.29
2023-02-11T19:06:19.865Z,2.29
2023-02-11T19:08:49.794Z,2.30
2023-02-11T19:11:20.052Z,2.32
2023-02-11T19:13:48.939Z,2.37
2023-02-11T19:16:19.840Z,2.39
2023-02-11T19:18:48.081Z,2.39
2023-02-11T19:21:16.670Z,2.38
2023-02-11T19:23:45.505Z,2.38
2023-02-11T19:26:13.679Z,2.37
2023-02-11T19:28:42.137Z,2.36
2023-02-11T19:31:10.443Z,2.33
2023-02-11T19:33:39.106Z,2.31
2023-02-11T19:36:08.206Z,2.29
2023-02-11T19:38:37.776Z,2.27
2023-02-11T19:41:06.079Z,2.26
2023-02-11T19:43:34.976Z,2.26
2023-02-11T19:46:04.328Z,2.27
2023-02-11T19:48:32.768Z,2.29
2023-02-11T19:51:13.122Z,2.30
2023-02-11T19:53:42.337Z,2.30
2023-02-11T19:56:11.169Z,2.30
2023-02-11T19:58:40.618Z,2.30
2023-02-11T20:01:13.530Z,2.28
2023-02-11T20:03:42.791Z,2.27
2023-02-11T20:06:14.070Z,2.27
2023-02-11T20:08:44.610Z,2.29
2023-02-11T20:11:17.595Z,2.31
2023-02-11T20:13:51.085Z,2.33
2023-02-11T20:16:21.925Z,2.35
2023-02-11T20:18:50.613Z,2.35
2023-02-11T20:21:23.717Z,2.34
2023-02-11T20:23:53.432Z,2.33
2023-02-11T20:26:22.506Z,2.31
2023-02-11T20:28:51.555Z,2.28
2023-02-11T20:31:19.988Z,2.27
2023-02-11T20:33:49.010Z,2.27
2023-02-11T20:36:21.293Z,2.26
2023-02-11T20:38:49.634Z,2.26
2023-02-11T20:41:31.036Z,2.24
2023-02-11T20:44:00.696Z,2.22
2023-02-11T20:46:31.030Z,2.19
2023-02-11T20:48:59.302Z,2.17
2023-02-11T20:51:30.517Z,2.15
2023-02-11T20:53:58.848Z,2.14
2023-02-11T20:56:34.517Z,2.14
2023-02-11T20:59:05.527Z,2.12
2023-02-11T21:01:40.674Z,2.09
2023-02-11T21:04:19.556Z,2.07
2023-02-11T21:06:55.804Z,2.03
2023-02-11T21:09:28.727Z,1.99
2023-02-11T21:12:05.631Z,1.97
2023-02-11T21:14:37.667Z,1.96
2023-02-11T21:17:08.895Z,1.96
2023-02-11T21:19:41.599Z,1.97
2023-02-11T21:22:12.560Z,1.97
2023-02-11T21:24:44.687Z,1.93
2023-02-11T21:27:21.705Z,1.88
2023-02-11T21:29:54.795Z,1.80
2023-02-11T21:32:26.671Z,1.78
2023-02-11T21:34:59.531Z,1.79
2023-02-11T21:37:33.570Z,1.80
2023-02-11T21:40:05.638Z,1.80
2023-02-11T21:42:39.684Z,1.81
2023-02-11T21:45:18.704Z,1.80
2023-02-11T21:47:51.459Z,1.80
2023-02-11T21:50:22.843Z,1.80
2023-02-11T21:52:54.629Z,1.77
2023-02-11T22:03:32.847Z,1.81
2023-02-11T22:06:06.307Z,1.78
2023-02-11T22:08:34.376Z,1.79
2023-02-11T22:11:06.554Z,1.82
2023-02-11T22:13:35.229Z,1.83
2023-02-11T22:16:11.357Z,1.84
2023-02-11T22:18:40.181Z,1.84
2023-02-11T22:21:13.828Z,1.84
2023-02-11T22:23:41.840Z,1.81
2023-02-11T22:26:16.386Z,1.82
2023-02-11T22:28:44.607Z,1.82
2023-02-11T22:31:14.756Z,1.85
2023-02-11T22:33:43.218Z,1.89
2023-02-11T22:36:17.050Z,1.90
2023-02-11T22:38:45.284Z,1.89
2023-02-11T22:41:13.571Z,1.88
2023-02-11T22:43:43.337Z,1.86
2023-02-11T22:46:13.270Z,1.84
2023-02-11T22:48:41.382Z,1.80
2023-02-11T22:51:15.420Z,1.77
2023-02-11T22:53:46.296Z,1.75
2023-02-11T22:56:15.805Z,1.75
2023-02-11T22:58:44.032Z,1.74
2023-02-11T23:01:12.912Z,1.74
2023-02-11T23:03:41.976Z,1.72
2023-02-11T23:06:10.521Z,1.70
2023-02-11T23:08:40.189Z,1.67
2023-02-11T23:11:10.269Z,1.66
2023-02-11T23:13:40.797Z,1.66
2023-02-11T23:16:11.352Z,1.67
2023-02-11T23:18:40.372Z,1.68
2023-02-11T23:21:12.794Z,1.67
2023-02-11T23:23:41.648Z,1.64
2023-02-11T23:26:13.296Z,1.63
2023-02-11T23:28:41.561Z,1.62
2023-02-11T23:31:25.084Z,1.61
2023-02-11T23:33:53.524Z,1.62
2023-02-11T23:36:21.770Z,1.63
2023-02-11T23:38:52.726Z,1.63
2023-02-11T23:41:20.979Z,1.61
2023-02-11T23:43:53.606Z,1.60
2023-02-11T23:46:22.345Z,1.59
2023-02-11T23:48:52.433Z,1.58
2023-02-11T23:51:21.563Z,1.57
2023-02-11T23:53:52.710Z,1.57
2023-02-11T23:56:26.687Z,1.56
2023-02-11T23:58:56.390Z,1.56
